sensor_id;sensor_type;location;lat;lon;timestamp;pressure;altitude;pressure_sealevel;temperature;humidity
44044;BME280;29709;52.396;16.796;2023-05-25T00:00:33;102299.98;;;14.83;80.98
44044;BME280;29709;52.396;16.796;2023-05-25T00:03:46;102307.95;;;14.86;80.37
44044;BME280;29709;52.396;16.796;2023-05-25T00:07:04;102302.09;;;14.89;80.29
44044;BME280;29709;52.396;16.796;2023-05-25T00:10:17;102295.38;;;14.91;80.42
44044;BME280;29709;52.396;16.796;2023-05-25T00:13:30;102300.59;;;14.94;79.76
44044;BME280;29709;52.396;16.796;2023-05-25T00:16:43;102304.23;;;14.95;79.28
44044;BME280;29709;52.396;16.796;2023-05-25T00:20:03;102295.59;;;14.98;79.68
44044;BME280;29709;52.396;16.796;2023-05-25T00:23:19;102303.60;;;15.01;79.39
44044;BME280;29709;52.396;16.796;2023-05-25T00:26:35;102298.93;;;15.01;79.80
44044;BME280;29709;52.396;16.796;2023-05-25T00:29:49;102306.21;;;15.03;79.01
44044;BME280;29709;52.396;16.796;2023-05-25T00:33:02;102304.47;;;15.01;79.26
44044;BME280;29709;52.396;16.796;2023-05-25T00:36:15;102308.80;;;15.04;79.38
44044;BME280;29709;52.396;16.796;2023-05-25T00:39:28;102310.00;;;15.01;79.60
44044;BME280;29709;52.396;16.796;2023-05-25T00:42:42;102312.61;;;15.03;79.28
44044;BME280;29709;52.396;16.796;2023-05-25T00:45:56;102312.12;;;15.08;79.43
44044;BME280;29709;52.396;16.796;2023-05-25T00:49:13;102316.31;;;15.12;79.40
44044;BME280;29709;52.396;16.796;2023-05-25T00:52:27;102324.83;;;15.18;78.63
44044;BME280;29709;52.396;16.796;2023-05-25T00:55:46;102323.96;;;15.18;78.77
44044;BME280;29709;52.396;16.796;2023-05-25T00:59:03;102318.59;;;15.16;79.11
44044;BME280;29709;52.396;16.796;2023-05-25T01:02:18;102312.02;;;15.17;78.69
44044;BME280;29709;52.396;16.796;2023-05-25T01:05:34;102314.31;;;15.22;79.17
44044;BME280;29709;52.396;16.796;2023-05-25T01:08:52;102314.69;;;15.27;78.05
44044;BME280;29709;52.396;16.796;2023-05-25T01:12:14;102318.66;;;15.24;77.85
44044;BME280;29709;52.396;16.796;2023-05-25T01:15:29;102324.37;;;15.23;78.05
44044;BME280;29709;52.396;16.796;2023-05-25T01:18:43;102325.53;;;15.20;79.17
44044;BME280;29709;52.396;16.796;2023-05-25T01:22:04;102327.59;;;15.18;78.80
44044;BME280;29709;52.396;16.796;2023-05-25T01:28:48;102325.53;;;15.20;78.60
44044;BME280;29709;52.396;16.796;2023-05-25T01:32:03;102330.20;;;15.20;77.70
44044;BME280;29709;52.396;16.796;2023-05-25T01:35:16;102324.45;;;15.13;78.97
44044;BME280;29709;52.396;16.796;2023-05-25T01:38:33;102331.16;;;15.11;78.56
44044;BME280;29709;52.396;16.796;2023-05-25T01:41:46;102328.89;;;15.06;78.79
44044;BME280;29709;52.396;16.796;2023-05-25T01:45:00;102331.99;;;15.03;78.88
44044;BME280;29709;52.396;16.796;2023-05-25T01:48:24;102325.42;;;15.04;78.56
44044;BME280;29709;52.396;16.796;2023-05-25T01:51:50;102329.92;;;15.05;79.22
44044;BME280;29709;52.396;16.796;2023-05-25T01:55:11;102318.68;;;15.07;79.16
44044;BME280;29709;52.396;16.796;2023-05-25T01:58:26;102331.49;;;15.08;78.88
44044;BME280;29709;52.396;16.796;2023-05-25T02:01:41;102330.45;;;15.09;78.90
44044;BME280;29709;52.396;16.796;2023-05-25T02:04:54;102331.99;;;15.03;78.58
44044;BME280;29709;52.396;16.796;2023-05-25T02:08:08;102324.14;;;14.98;78.54
44044;BME280;29709;52.396;16.796;2023-05-25T02:11:21;102328.81;;;14.98;78.15
44044;BME280;29709;52.396;16.796;2023-05-25T02:14:34;102334.44;;;14.88;78.16
44044;BME280;29709;52.396;16.796;2023-05-25T02:17:48;102327.82;;;14.81;78.66
44044;BME280;29709;52.396;16.796;2023-05-25T02:21:01;102326.21;;;14.79;78.58
44044;BME280;29709;52.396;16.796;2023-05-25T02:24:14;102329.39;;;14.66;78.25
44044;BME280;29709;52.396;16.796;2023-05-25T02:27:28;102329.62;;;14.55;78.85
44044;BME280;29709;52.396;16.796;2023-05-25T02:30:41;102330.33;;;14.57;79.47
44044;BME280;29709;52.396;16.796;2023-05-25T02:33:55;102339.33;;;14.59;79.12
44044;BME280;29709;52.396;16.796;2023-05-25T02:37:08;102338.63;;;14.57;79.19
44044;BME280;29709;52.396;16.796;2023-05-25T02:40:21;102338.19;;;14.61;79.31
44044;BME280;29709;52.396;16.796;2023-05-25T02:43:34;102334.22;;;14.64;78.46
44044;BME280;29709;52.396;16.796;2023-05-25T02:46:49;102332.64;;;14.61;78.08
44044;BME280;29709;52.396;16.796;2023-05-25T02:50:03;102335.15;;;14.55;78.69
44044;BME280;29709;52.396;16.796;2023-05-25T02:53:17;102338.80;;;14.55;78.28
44044;BME280;29709;52.396;16.796;2023-05-25T02:56:30;102337.05;;;14.54;78.06
44044;BME280;29709;52.396;16.796;2023-05-25T02:59:43;102331.84;;;14.51;78.27
44044;BME280;29709;52.396;16.796;2023-05-25T03:02:58;102336.67;;;14.49;78.39
44044;BME280;29709;52.396;16.796;2023-05-25T03:06:13;102331.43;;;14.46;78.62
44044;BME280;29709;52.396;16.796;2023-05-25T03:09:26;102334.48;;;14.43;78.75
44044;BME280;29709;52.396;16.796;2023-05-25T03:12:39;102336.82;;;14.38;79.02
44044;BME280;29709;52.396;16.796;2023-05-25T03:15:52;102344.42;;;14.36;79.14
44044;BME280;29709;52.396;16.796;2023-05-25T03:19:06;102349.09;;;14.35;79.43
44044;BME280;29709;52.396;16.796;2023-05-25T03:22:20;102345.61;;;14.33;79.16
44044;BME280;29709;52.396;16.796;2023-05-25T03:25:33;102343.16;;;14.30;79.35
44044;BME280;29709;52.396;16.796;2023-05-25T03:28:46;102348.53;;;14.32;79.17
44044;BME280;29709;52.396;16.796;2023-05-25T03:31:59;102358.57;;;14.33;78.66
44044;BME280;29709;52.396;16.796;2023-05-25T03:35:13;102351.04;;;14.25;78.71
44044;BME280;29709;52.396;16.796;2023-05-25T03:38:26;102349.30;;;14.24;79.13
44044;BME280;29709;52.396;16.796;2023-05-25T03:41:39;102356.57;;;14.25;78.46
44044;BME280;29709;52.396;16.796;2023-05-25T03:44:52;102347.73;;;14.22;78.91
44044;BME280;29709;52.396;16.796;2023-05-25T03:48:06;102355.16;;;14.21;79.47
44044;BME280;29709;52.396;16.796;2023-05-25T03:51:19;102349.46;;;14.23;78.83
44044;BME280;29709;52.396;16.796;2023-05-25T03:54:32;102347.98;;;14.28;78.78
44044;BME280;29709;52.396;16.796;2023-05-25T03:57:45;102357.86;;;14.31;78.96
44044;BME280;29709;52.396;16.796;2023-05-25T04:00:59;102357.54;;;14.34;78.54
44044;BME280;29709;52.396;16.796;2023-05-25T04:04:12;102364.97;;;14.33;79.18
44044;BME280;29709;52.396;16.796;2023-05-25T04:07:25;102369.15;;;14.37;78.97
44044;BME280;29709;52.396;16.796;2023-05-25T04:10:44;102372.50;;;14.41;78.77
44044;BME280;29709;52.396;16.796;2023-05-25T04:13:58;102372.05;;;14.46;78.86
44044;BME280;29709;52.396;16.796;2023-05-25T04:17:11;102377.84;;;14.52;78.67
44044;BME280;29709;52.396;16.796;2023-05-25T04:20:25;102374.76;;;14.55;78.51
44044;BME280;29709;52.396;16.796;2023-05-25T04:23:38;102374.76;;;14.55;78.53
44044;BME280;29709;52.396;16.796;2023-05-25T04:26:51;102367.59;;;14.62;78.31
44044;BME280;29709;52.396;16.796;2023-05-25T04:30:06;102376.10;;;14.69;78.35
44044;BME280;29709;52.396;16.796;2023-05-25T04:33:20;102381.90;;;14.76;78.01
44044;BME280;29709;52.396;16.796;2023-05-25T04:36:33;102384.34;;;14.79;77.90
44044;BME280;29709;52.396;16.796;2023-05-25T04:39:46;102377.94;;;14.78;77.35
44044;BME280;29709;52.396;16.796;2023-05-25T04:43:00;102376.45;;;14.84;77.48
44044;BME280;29709;52.396;16.796;2023-05-25T04:46:13;102375.26;;;14.86;76.94
44044;BME280;29709;52.396;16.796;2023-05-25T04:49:28;102375.80;;;14.90;77.41
44044;BME280;29709;52.396;16.796;2023-05-25T04:52:41;102380.01;;;14.94;76.37
44044;BME280;29709;52.396;16.796;2023-05-25T04:55:55;102377.95;;;14.96;76.57
44044;BME280;29709;52.396;16.796;2023-05-25T04:59:08;102379.92;;;15.04;76.57
44044;BME280;29709;52.396;16.796;2023-05-25T05:02:22;102367.12;;;15.03;76.94
44044;BME280;29709;52.396;16.796;2023-05-25T05:05:36;102381.02;;;15.11;76.32
44044;BME280;29709;52.396;16.796;2023-05-25T05:08:49;102371.70;;;15.12;76.26
44044;BME280;29709;52.396;16.796;2023-05-25T05:12:03;102382.02;;;15.27;75.79
44044;BME280;29709;52.396;16.796;2023-05-25T05:15:17;102370.48;;;15.32;75.13
44044;BME280;29709;52.396;16.796;2023-05-25T05:18:30;102377.32;;;15.64;74.30
44044;BME280;29709;52.396;16.796;2023-05-25T05:21:44;102379.20;;;15.89;74.27
44044;BME280;29709;52.396;16.796;2023-05-25T05:24:58;102379.87;;;16.25;73.66
44044;BME280;29709;52.396;16.796;2023-05-25T05:28:11;102381.02;;;16.57;72.61
44044;BME280;29709;52.396;16.796;2023-05-25T05:31:24;102377.80;;;16.78;71.46
44044;BME280;29709;52.396;16.796;2023-05-25T05:34:39;102373.69;;;16.90;68.33
44044;BME280;29709;52.396;16.796;2023-05-25T05:37:52;102385.13;;;17.19;70.45
44044;BME280;29709;52.396;16.796;2023-05-25T05:41:05;102381.83;;;17.48;70.19
44044;BME280;29709;52.396;16.796;2023-05-25T05:44:26;102367.40;;;17.77;69.07
44044;BME280;29709;52.396;16.796;2023-05-25T05:47:39;102377.37;;;18.11;68.17
44044;BME280;29709;52.396;16.796;2023-05-25T05:50:52;102368.78;;;18.29;66.48
44044;BME280;29709;52.396;16.796;2023-05-25T05:54:06;102370.44;;;18.46;65.81
44044;BME280;29709;52.396;16.796;2023-05-25T05:57:19;102371.99;;;18.49;64.82
44044;BME280;29709;52.396;16.796;2023-05-25T06:00:33;102384.00;;;18.49;64.92
44044;BME280;29709;52.396;16.796;2023-05-25T06:03:47;102379.25;;;18.58;63.66
44044;BME280;29709;52.396;16.796;2023-05-25T06:07:00;102383.68;;;18.75;64.18
44044;BME280;29709;52.396;16.796;2023-05-25T06:10:13;102382.52;;;18.92;62.85
44044;BME280;29709;52.396;16.796;2023-05-25T06:13:26;102386.08;;;19.09;62.58
44044;BME280;29709;52.396;16.796;2023-05-25T06:16:42;102392.07;;;19.21;62.75
44044;BME280;29709;52.396;16.796;2023-05-25T06:19:56;102393.17;;;19.35;60.74
44044;BME280;29709;52.396;16.796;2023-05-25T06:23:09;102389.07;;;19.45;62.34
44044;BME280;29709;52.396;16.796;2023-05-25T06:26:26;102405.53;;;19.55;62.50
44044;BME280;29709;52.396;16.796;2023-05-25T06:29:40;102402.08;;;19.53;61.71
44044;BME280;29709;52.396;16.796;2023-05-25T06:32:59;102405.98;;;19.44;60.81
44044;BME280;29709;52.396;16.796;2023-05-25T06:36:12;102408.74;;;19.29;61.16
44044;BME280;29709;52.396;16.796;2023-05-25T06:39:26;102416.59;;;19.25;59.80
44044;BME280;29709;52.396;16.796;2023-05-25T06:42:40;102421.24;;;19.33;60.19
44044;BME280;29709;52.396;16.796;2023-05-25T06:45:54;102409.77;;;19.51;59.95
44044;BME280;29709;52.396;16.796;2023-05-25T06:49:07;102412.73;;;19.72;59.91
44044;BME280;29709;52.396;16.796;2023-05-25T06:52:20;102398.59;;;19.88;60.32
44044;BME280;29709;52.396;16.796;2023-05-25T06:55:33;102412.18;;;19.92;59.41
44044;BME280;29709;52.396;16.796;2023-05-25T06:58:46;102415.05;;;19.83;58.55
44044;BME280;29709;52.396;16.796;2023-05-25T07:02:02;102413.16;;;20.13;58.33
44044;BME280;29709;52.396;16.796;2023-05-25T07:05:16;102411.03;;;20.15;57.43
44044;BME280;29709;52.396;16.796;2023-05-25T07:08:29;102411.03;;;20.15;57.44
44044;BME280;29709;52.396;16.796;2023-05-25T07:11:43;102401.58;;;20.31;58.05
44044;BME280;29709;52.396;16.796;2023-05-25T07:14:56;102400.13;;;20.65;57.64
44044;BME280;29709;52.396;16.796;2023-05-25T07:18:10;102404.97;;;20.56;55.11
44044;BME280;29709;52.396;16.796;2023-05-25T07:21:24;102412.09;;;20.59;55.71
44044;BME280;29709;52.396;16.796;2023-05-25T07:24:40;102403.39;;;20.68;56.12
44044;BME280;29709;52.396;16.796;2023-05-25T07:27:53;102410.59;;;20.78;54.40
44044;BME280;29709;52.396;16.796;2023-05-25T07:31:09;102411.68;;;20.62;54.91
44044;BME280;29709;52.396;16.796;2023-05-25T07:34:23;102408.47;;;20.80;55.34
44044;BME280;29709;52.396;16.796;2023-05-25T07:37:36;102405.25;;;20.97;52.87
44044;BME280;29709;52.396;16.796;2023-05-25T07:40:49;102401.80;;;20.81;53.62
44044;BME280;29709;52.396;16.796;2023-05-25T07:44:04;102408.29;;;21.02;53.49
44044;BME280;29709;52.396;16.796;2023-05-25T07:47:17;102409.27;;;21.31;53.87
44044;BME280;29709;52.396;16.796;2023-05-25T07:50:30;102411.48;;;20.99;51.87
44044;BME280;29709;52.396;16.796;2023-05-25T07:53:43;102407.10;;;21.12;52.97
44044;BME280;29709;52.396;16.796;2023-05-25T07:56:57;102418.82;;;21.22;53.31
44044;BME280;29709;52.396;16.796;2023-05-25T08:00:11;102422.92;;;21.41;53.62
44044;BME280;29709;52.396;16.796;2023-05-25T08:03:24;102416.71;;;21.45;51.61
44044;BME280;29709;52.396;16.796;2023-05-25T08:06:37;102417.09;;;21.64;51.79
44044;BME280;29709;52.396;16.796;2023-05-25T08:09:50;102415.53;;;21.82;52.73
44044;BME280;29709;52.396;16.796;2023-05-25T08:13:04;102408.46;;;22.14;51.80
44044;BME280;29709;52.396;16.796;2023-05-25T08:16:18;102414.60;;;22.31;49.72
44044;BME280;29709;52.396;16.796;2023-05-25T08:19:31;102412.33;;;22.13;50.71
44044;BME280;29709;52.396;16.796;2023-05-25T08:22:44;102417.34;;;22.25;51.03
44044;BME280;29709;52.396;16.796;2023-05-25T08:28:14;102420.33;;;21.88;49.77
44044;BME280;29709;52.396;16.796;2023-05-25T08:31:28;102417.19;;;22.05;50.06
44044;BME280;29709;52.396;16.796;2023-05-25T08:34:41;102421.47;;;22.01;50.30
44044;BME280;29709;52.396;16.796;2023-05-25T08:37:54;102422.73;;;21.98;50.65
44044;BME280;29709;52.396;16.796;2023-05-25T08:41:07;102418.18;;;21.90;49.88
44044;BME280;29709;52.396;16.796;2023-05-25T08:44:21;102422.70;;;21.92;51.05
44044;BME280;29709;52.396;16.796;2023-05-25T08:47:42;102427.43;;;21.63;51.26
44044;BME280;29709;52.396;16.796;2023-05-25T08:51:04;102420.72;;;21.57;51.27
44044;BME280;29709;52.396;16.796;2023-05-25T08:54:24;102427.22;;;21.65;52.21
44044;BME280;29709;52.396;16.796;2023-05-25T08:57:45;102426.66;;;21.76;52.03
44044;BME280;29709;52.396;16.796;2023-05-25T09:01:03;102415.41;;;21.97;51.96
44044;BME280;29709;52.396;16.796;2023-05-25T09:04:21;102426.95;;;21.87;51.17
44044;BME280;29709;52.396;16.796;2023-05-25T09:07:35;102425.13;;;21.73;52.11
44044;BME280;29709;52.396;16.796;2023-05-25T09:10:49;102431.91;;;21.57;51.96
44044;BME280;29709;52.396;16.796;2023-05-25T09:14:03;102427.83;;;21.60;51.80
44044;BME280;29709;52.396;16.796;2023-05-25T09:17:17;102422.20;;;21.81;51.73
44044;BME280;29709;52.396;16.796;2023-05-25T09:20:32;102426.45;;;22.05;50.41
44044;BME280;29709;52.396;16.796;2023-05-25T09:23:46;102431.91;;;21.85;49.67
44044;BME280;29709;52.396;16.796;2023-05-25T09:26:59;102436.40;;;21.80;50.04
44044;BME280;29709;52.396;16.796;2023-05-25T09:30:13;102427.13;;;21.79;50.15
44044;BME280;29709;52.396;16.796;2023-05-25T09:33:26;102430.13;;;22.06;50.51
44044;BME280;29709;52.396;16.796;2023-05-25T09:36:40;102436.31;;;22.29;50.56
44044;BME280;29709;52.396;16.796;2023-05-25T09:39:55;102437.33;;;22.15;49.74
44044;BME280;29709;52.396;16.796;2023-05-25T09:43:08;102431.08;;;21.64;49.27
44044;BME280;29709;52.396;16.796;2023-05-25T09:46:23;102439.06;;;21.67;50.76
44044;BME280;29709;52.396;16.796;2023-05-25T09:49:36;102447.61;;;22.08;49.97
44044;BME280;29709;52.396;16.796;2023-05-25T09:52:56;102435.72;;;22.34;49.14
44044;BME280;29709;52.396;16.796;2023-05-25T09:56:12;102436.85;;;22.46;49.88
44044;BME280;29709;52.396;16.796;2023-05-25T09:59:25;102442.12;;;22.62;49.89
44044;BME280;29709;52.396;16.796;2023-05-25T10:02:40;102433.74;;;22.69;49.34
44044;BME280;29709;52.396;16.796;2023-05-25T10:05:53;102437.09;;;22.86;50.16
44044;BME280;29709;52.396;16.796;2023-05-25T10:09:10;102435.25;;;23.26;49.72
44044;BME280;29709;52.396;16.796;2023-05-25T10:12:27;102444.52;;;23.26;48.48
44044;BME280;29709;52.396;16.796;2023-05-25T10:15:43;102433.05;;;23.08;49.40
44044;BME280;29709;52.396;16.796;2023-05-25T10:19:03;102445.16;;;22.67;47.31
44044;BME280;29709;52.396;16.796;2023-05-25T10:22:20;102446.44;;;22.24;47.82
44044;BME280;29709;52.396;16.796;2023-05-25T10:25:39;102440.99;;;22.15;47.86
44044;BME280;29709;52.396;16.796;2023-05-25T10:28:58;102445.09;;;22.19;48.09
44044;BME280;29709;52.396;16.796;2023-05-25T10:32:16;102440.25;;;22.35;48.23
44044;BME280;29709;52.396;16.796;2023-05-25T10:35:30;102441.81;;;22.44;48.44
44044;BME280;29709;52.396;16.796;2023-05-25T10:38:43;102443.75;;;22.43;47.34
44044;BME280;29709;52.396;16.796;2023-05-25T10:41:57;102440.47;;;22.33;47.19
44044;BME280;29709;52.396;16.796;2023-05-25T10:45:14;102441.16;;;22.42;46.92
44044;BME280;29709;52.396;16.796;2023-05-25T10:48:37;102438.11;;;22.37;46.03
44044;BME280;29709;52.396;16.796;2023-05-25T10:51:56;102436.54;;;22.28;47.47
44044;BME280;29709;52.396;16.796;2023-05-25T10:55:11;102438.95;;;22.31;46.01
44044;BME280;29709;52.396;16.796;2023-05-25T10:58:26;102439.06;;;22.57;47.41
44044;BME280;29709;52.396;16.796;2023-05-25T11:01:49;102443.27;;;22.74;47.03
44044;BME280;29709;52.396;16.796;2023-05-25T11:12:01;102442.40;;;22.81;46.92
44044;BME280;29709;52.396;16.796;2023-05-25T11:15:15;102435.79;;;22.88;46.69
44044;BME280;29709;52.396;16.796;2023-05-25T11:18:37;102434.55;;;23.11;46.74
44044;BME280;29709;52.396;16.796;2023-05-25T11:21:51;102442.76;;;23.06;46.35
44044;BME280;29709;52.396;16.796;2023-05-25T11:28:32;102434.39;;;23.32;44.91
44044;BME280;29709;52.396;16.796;2023-05-25T11:31:51;102421.68;;;23.49;45.98
44044;BME280;29709;52.396;16.796;2023-05-25T11:35:06;102419.94;;;23.55;44.04
44044;BME280;29709;52.396;16.796;2023-05-25T11:38:23;102419.94;;;23.55;44.35
44044;BME280;29709;52.396;16.796;2023-05-25T11:41:39;102423.22;;;23.65;43.50
44044;BME280;29709;52.396;16.796;2023-05-25T11:44:52;102424.52;;;23.82;43.68
44044;BME280;29709;52.396;16.796;2023-05-25T11:48:05;102418.48;;;23.79;43.50
44044;BME280;29709;52.396;16.796;2023-05-25T11:51:28;102421.48;;;23.90;42.82
44044;BME280;29709;52.396;16.796;2023-05-25T11:54:42;102416.50;;;23.93;43.16
44044;BME280;29709;52.396;16.796;2023-05-25T11:57:57;102402.47;;;23.93;43.49
44044;BME280;29709;52.396;16.796;2023-05-25T12:04:33;102399.44;;;23.94;43.16
44044;BME280;29709;52.396;16.796;2023-05-25T12:07:46;102395.32;;;24.10;42.44
44044;BME280;29709;52.396;16.796;2023-05-25T12:11:00;102406.55;;;24.10;40.88
44044;BME280;29709;52.396;16.796;2023-05-25T12:14:13;102395.09;;;24.11;42.73
44044;BME280;29709;52.396;16.796;2023-05-25T12:17:26;102398.57;;;23.94;41.99
44044;BME280;29709;52.396;16.796;2023-05-25T12:20:40;102399.70;;;23.66;42.37
44044;BME280;29709;52.396;16.796;2023-05-25T12:23:53;102399.66;;;23.46;42.08
44044;BME280;29709;52.396;16.796;2023-05-25T12:27:16;102400.52;;;23.27;43.01
44044;BME280;29709;52.396;16.796;2023-05-25T12:30:29;102404.16;;;23.14;44.44
44044;BME280;29709;52.396;16.796;2023-05-25T12:33:42;102395.34;;;23.37;43.68
44044;BME280;29709;52.396;16.796;2023-05-25T12:36:56;102397.10;;;23.78;44.17
44044;BME280;29709;52.396;16.796;2023-05-25T12:40:16;102398.62;;;23.67;42.46
44044;BME280;29709;52.396;16.796;2023-05-25T12:43:36;102389.70;;;23.17;43.49
44044;BME280;29709;52.396;16.796;2023-05-25T12:50:18;102389.87;;;23.02;44.76
44044;BME280;29709;52.396;16.796;2023-05-25T13:00:25;102370.73;;;23.39;43.41
44044;BME280;29709;52.396;16.796;2023-05-25T13:03:41;102370.27;;;23.22;42.63
44044;BME280;29709;52.396;16.796;2023-05-25T13:07:02;102373.51;;;23.06;42.78
44044;BME280;29709;52.396;16.796;2023-05-25T13:10:18;102385.59;;;23.07;43.14
44044;BME280;29709;52.396;16.796;2023-05-25T13:13:37;102372.21;;;23.09;43.53
44044;BME280;29709;52.396;16.796;2023-05-25T13:16:57;102369.86;;;23.52;43.10
44044;BME280;29709;52.396;16.796;2023-05-25T13:20:14;102372.89;;;23.83;43.20
44044;BME280;29709;52.396;16.796;2023-05-25T13:23:27;102361.84;;;24.02;42.46
44044;BME280;29709;52.396;16.796;2023-05-25T13:26:41;102357.30;;;24.07;42.77
44044;BME280;29709;52.396;16.796;2023-05-25T13:29:56;102361.37;;;24.18;42.81
44044;BME280;29709;52.396;16.796;2023-05-25T13:33:10;102356.16;;;24.22;42.43
44044;BME280;29709;52.396;16.796;2023-05-25T13:36:24;102359.83;;;24.29;41.70
44044;BME280;29709;52.396;16.796;2023-05-25T13:39:38;102358.50;;;24.38;42.25
44044;BME280;29709;52.396;16.796;2023-05-25T13:42:51;102357.63;;;24.37;41.10
44044;BME280;29709;52.396;16.796;2023-05-25T13:46:04;102350.30;;;24.36;40.41
44044;BME280;29709;52.396;16.796;2023-05-25T13:49:18;102352.06;;;24.31;40.49
44044;BME280;29709;52.396;16.796;2023-05-25T13:52:31;102351.91;;;23.99;40.39
44044;BME280;29709;52.396;16.796;2023-05-25T13:55:44;102343.53;;;23.73;40.90
44044;BME280;29709;52.396;16.796;2023-05-25T13:58:59;102338.56;;;23.75;41.66
44044;BME280;29709;52.396;16.796;2023-05-25T14:02:13;102335.52;;;23.83;41.75
44044;BME280;29709;52.396;16.796;2023-05-25T14:05:26;102334.84;;;24.07;42.20
44044;BME280;29709;52.396;16.796;2023-05-25T14:08:41;102327.66;;;24.18;41.29
44044;BME280;29709;52.396;16.796;2023-05-25T14:11:54;102321.14;;;24.24;41.74
44044;BME280;29709;52.396;16.796;2023-05-25T14:15:08;102313.97;;;24.41;41.38
44044;BME280;29709;52.396;16.796;2023-05-25T14:18:22;102316.55;;;24.43;40.94
44044;BME280;29709;52.396;16.796;2023-05-25T14:21:35;102321.30;;;24.49;41.62
44044;BME280;29709;52.396;16.796;2023-05-25T14:24:49;102308.91;;;24.57;41.20
44044;BME280;29709;52.396;16.796;2023-05-25T14:28:02;102318.34;;;24.69;41.14
44044;BME280;29709;52.396;16.796;2023-05-25T14:31:15;102307.24;;;24.49;39.70
44044;BME280;29709;52.396;16.796;2023-05-25T14:34:28;102311.18;;;24.35;41.05
44044;BME280;29709;52.396;16.796;2023-05-25T14:37:41;102306.57;;;24.47;40.02
44044;BME280;29709;52.396;16.796;2023-05-25T14:40:54;102304.47;;;24.36;40.57
44044;BME280;29709;52.396;16.796;2023-05-25T14:44:08;102304.68;;;24.41;40.94
44044;BME280;29709;52.396;16.796;2023-05-25T14:47:21;102300.73;;;24.48;40.86
44044;BME280;29709;52.396;16.796;2023-05-25T14:50:35;102294.73;;;24.38;39.42
44044;BME280;29709;52.396;16.796;2023-05-25T14:53:48;102294.34;;;24.28;39.95
44044;BME280;29709;52.396;16.796;2023-05-25T14:57:02;102298.23;;;24.34;39.51
44044;BME280;29709;52.396;16.796;2023-05-25T15:00:16;102296.00;;;24.49;39.84
44044;BME280;29709;52.396;16.796;2023-05-25T15:03:29;102294.21;;;24.55;40.28
44044;BME280;29709;52.396;16.796;2023-05-25T15:06:42;102293.37;;;24.54;39.94
44044;BME280;29709;52.396;16.796;2023-05-25T15:09:55;102287.57;;;24.49;39.81
44044;BME280;29709;52.396;16.796;2023-05-25T15:13:09;102284.70;;;24.56;38.96
44044;BME280;29709;52.396;16.796;2023-05-25T15:16:22;102287.71;;;24.61;39.71
44044;BME280;29709;52.396;16.796;2023-05-25T15:19:35;102287.91;;;24.59;38.80
44044;BME280;29709;52.396;16.796;2023-05-25T15:22:48;102280.79;;;24.57;38.89
44044;BME280;29709;52.396;16.796;2023-05-25T15:26:05;102283.53;;;24.32;38.76
44044;BME280;29709;52.396;16.796;2023-05-25T15:29:20;102284.84;;;24.23;38.73
44044;BME280;29709;52.396;16.796;2023-05-25T15:32:34;102283.30;;;24.27;38.40
44044;BME280;29709;52.396;16.796;2023-05-25T15:35:47;102281.82;;;24.31;39.23
44044;BME280;29709;52.396;16.796;2023-05-25T15:39:00;102276.39;;;24.29;38.94
44044;BME280;29709;52.396;16.796;2023-05-25T15:42:13;102276.19;;;24.24;38.29
44044;BME280;29709;52.396;16.796;2023-05-25T15:45:27;102269.91;;;24.29;39.73
44044;BME280;29709;52.396;16.796;2023-05-25T15:48:40;102267.69;;;24.44;39.56
44044;BME280;29709;52.396;16.796;2023-05-25T15:51:53;102273.79;;;24.28;37.52
44044;BME280;29709;52.396;16.796;2023-05-25T15:55:07;102272.92;;;24.27;38.89
44044;BME280;29709;52.396;16.796;2023-05-25T15:58:20;102263.05;;;24.18;38.92
44044;BME280;29709;52.396;16.796;2023-05-25T16:01:33;102267.98;;;24.23;39.18
44044;BME280;29709;52.396;16.796;2023-05-25T16:04:48;102273.46;;;24.04;38.12
44044;BME280;29709;52.396;16.796;2023-05-25T16:08:01;102270.30;;;23.87;38.32
44044;BME280;29709;52.396;16.796;2023-05-25T16:11:14;102275.33;;;23.66;38.00
44044;BME280;29709;52.396;16.796;2023-05-25T16:14:28;102265.39;;;23.50;38.42
44044;BME280;29709;52.396;16.796;2023-05-25T16:17:41;102266.91;;;23.39;38.59
44044;BME280;29709;52.396;16.796;2023-05-25T16:20:54;102280.30;;;23.37;37.91
44044;BME280;29709;52.396;16.796;2023-05-25T16:24:09;102265.83;;;23.33;38.52
44044;BME280;29709;52.396;16.796;2023-05-25T16:27:22;102272.32;;;23.21;38.09
44044;BME280;29709;52.396;16.796;2023-05-25T16:30:35;102272.78;;;23.04;37.80
44044;BME280;29709;52.396;16.796;2023-05-25T16:33:48;102266.73;;;22.94;38.39
44044;BME280;29709;52.396;16.796;2023-05-25T16:37:01;102260.26;;;22.94;39.05
44044;BME280;29709;52.396;16.796;2023-05-25T16:40:14;102256.59;;;22.93;39.01
44044;BME280;29709;52.396;16.796;2023-05-25T16:43:28;102264.35;;;23.04;39.62
44044;BME280;29709;52.396;16.796;2023-05-25T16:46:41;102257.22;;;23.09;39.61
44044;BME280;29709;52.396;16.796;2023-05-25T16:49:54;102265.63;;;23.02;38.81
44044;BME280;29709;52.396;16.796;2023-05-25T16:53:07;102261.77;;;22.96;39.79
44044;BME280;29709;52.396;16.796;2023-05-25T16:56:22;102262.82;;;23.02;40.01
44044;BME280;29709;52.396;16.796;2023-05-25T16:59:36;102272.95;;;23.03;40.19
44044;BME280;29709;52.396;16.796;2023-05-25T17:02:50;102267.37;;;22.96;40.51
44044;BME280;29709;52.396;16.796;2023-05-25T17:06:04;102261.10;;;22.88;40.87
44044;BME280;29709;52.396;16.796;2023-05-25T17:09:17;102258.47;;;22.80;40.68
44044;BME280;29709;52.396;16.796;2023-05-25T17:12:31;102256.97;;;22.77;40.86